Aérodrome :
LOGIN :

S'inscrire | Disclaimer

   EN    FR    IT 

 










Légende :    VFR   VFR Marginal   IFR   IFR Intensif   IFR Très Intensif
Visi : 
Plafond : 
>= 8 km
>= 3000ft
5 à 8 km
1000 à 3000 ft
1500m à 5 km
500 à 1000 ft
800 à 1500m
200 à 500 ft
< 800m
< 200 ft
Symboles :   Orages  Brouillard  Fortes neiges  Fortes précipitations  Vent > 20 kt
SIGMETs :   Divers  Orages  Givrage  Turbulence  Onde Orograph.  Cendres Volcan.






- Altitude de l'aérodrome : 614 ft
- Code IATA : CRL


EBCI - Charleroi

DERNIER METAR :
  • 031920Z AUTO 36008KT CAVOK 18/08 Q1003

METARs EXPIRÉS :
  • 031850Z AUTO 35007KT 320V020 CAVOK 19/09 Q1003
  • 031820Z AUTO 34008KT 310V010 CAVOK 20/09 Q1003
  • 031750Z AUTO 34006KT 300V010 CAVOK 20/09 Q1003
  • 031720Z AUTO 36007KT 310V020 CAVOK 21/08 Q1003

TAF TAF EBCI
Valide du 03 à 18h jusqu'au 05 à 00h UTC


031706Z 0318/0424 33008KT 9999 FEW040
PROB40
TEMPO 0323/0406 BKN005
TEMPO 0410/0416 3500 SHRA BKN014CB
PROB30
TEMPO 0414/0416 33015G25KT



MET'MAP, la Météo Aéronautique d'un coup d'oeil ! - Copyright ORBIFLY Décembre 2007 - Disclaimer

ORBIFLY MET'MAP TEAM :

Programmation & Développement : Alexandra Zaïnal
Sur une idée originale de : Baudouin d'Aumeries
Assistance à la programmation : Marc-Olivier Méhu
Soutien technique & logistique : Manuel Goepfert

Contact : metmap@orbifly.com




SOURCES & CREDITS :

   NOAA